sensor_id;sensor_type;location;lat;lon;timestamp;P1;durP1;ratioP1;P2;durP2;ratioP2
17369;SDS011;8802;52.402;4.920;2023-07-29T00:01:30;2.50;;;1.50;;
17369;SDS011;8802;52.402;4.920;2023-07-29T00:03:57;2.55;;;1.40;;
17369;SDS011;8802;52.402;4.920;2023-07-29T00:06:24;4.32;;;1.55;;
17369;SDS011;8802;52.402;4.920;2023-07-29T00:08:50;2.88;;;1.60;;
17369;SDS011;8802;52.402;4.920;2023-07-29T00:11:19;3.60;;;1.30;;
17369;SDS011;8802;52.402;4.920;2023-07-29T00:13:45;2.97;;;1.33;;
17369;SDS011;8802;52.402;4.920;2023-07-29T00:16:15;3.38;;;1.40;;
17369;SDS011;8802;52.402;4.920;2023-07-29T00:18:42;2.05;;;1.25;;
17369;SDS011;8802;52.402;4.920;2023-07-29T00:21:09;1.77;;;1.20;;
17369;SDS011;8802;52.402;4.920;2023-07-29T00:23:36;2.40;;;1.25;;
17369;SDS011;8802;52.402;4.920;2023-07-29T00:26:02;3.38;;;1.38;;
17369;SDS011;8802;52.402;4.920;2023-07-29T00:28:31;3.15;;;1.25;;
17369;SDS011;8802;52.402;4.920;2023-07-29T00:30:58;2.97;;;1.20;;
17369;SDS011;8802;52.402;4.920;2023-07-29T00:33:25;3.58;;;1.17;;
17369;SDS011;8802;52.402;4.920;2023-07-29T00:35:52;1.58;;;1.13;;
17369;SDS011;8802;52.402;4.920;2023-07-29T00:38:19;1.38;;;1.00;;
17369;SDS011;8802;52.402;4.920;2023-07-29T00:40:45;2.88;;;1.00;;
17369;SDS011;8802;52.402;4.920;2023-07-29T00:43:12;2.20;;;1.15;;
17369;SDS011;8802;52.402;4.920;2023-07-29T00:45:41;2.40;;;1.00;;
17369;SDS011;8802;52.402;4.920;2023-07-29T00:48:09;2.40;;;1.10;;
17369;SDS011;8802;52.402;4.920;2023-07-29T00:50:36;2.70;;;0.85;;
17369;SDS011;8802;52.402;4.920;2023-07-29T00:53:03;2.33;;;1.02;;
17369;SDS011;8802;52.402;4.920;2023-07-29T00:55:30;2.55;;;1.10;;
17369;SDS011;8802;52.402;4.920;2023-07-29T00:57:57;2.88;;;1.20;;
17369;SDS011;8802;52.402;4.920;2023-07-29T01:00:24;2.08;;;0.90;;
17369;SDS011;8802;52.402;4.920;2023-07-29T01:02:52;2.05;;;1.17;;
17369;SDS011;8802;52.402;4.920;2023-07-29T01:05:20;2.78;;;1.20;;
17369;SDS011;8802;52.402;4.920;2023-07-29T01:07:49;2.72;;;1.40;;
17369;SDS011;8802;52.402;4.920;2023-07-29T01:10:25;3.78;;;1.20;;
17369;SDS011;8802;52.402;4.920;2023-07-29T01:13:01;2.70;;;1.15;;
17369;SDS011;8802;52.402;4.920;2023-07-29T01:15:38;3.40;;;1.30;;
17369;SDS011;8802;52.402;4.920;2023-07-29T01:18:11;2.55;;;1.00;;
17369;SDS011;8802;52.402;4.920;2023-07-29T01:20:44;3.28;;;1.88;;
17369;SDS011;8802;52.402;4.920;2023-07-29T01:23:13;3.65;;;1.08;;
17369;SDS011;8802;52.402;4.920;2023-07-29T01:25:43;2.53;;;1.27;;
17369;SDS011;8802;52.402;4.920;2023-07-29T01:28:10;1.25;;;0.93;;
17369;SDS011;8802;52.402;4.920;2023-07-29T01:30:38;2.17;;;1.20;;
17369;SDS011;8802;52.402;4.920;2023-07-29T01:33:08;2.28;;;1.10;;
17369;SDS011;8802;52.402;4.920;2023-07-29T01:35:40;3.65;;;1.27;;
17369;SDS011;8802;52.402;4.920;2023-07-29T01:38:12;3.28;;;1.23;;
17369;SDS011;8802;52.402;4.920;2023-07-29T01:40:44;3.90;;;1.15;;
17369;SDS011;8802;52.402;4.920;2023-07-29T01:43:11;3.28;;;1.40;;
17369;SDS011;8802;52.402;4.920;2023-07-29T01:45:39;2.95;;;1.50;;
17369;SDS011;8802;52.402;4.920;2023-07-29T01:48:06;1.90;;;1.20;;
17369;SDS011;8802;52.402;4.920;2023-07-29T01:50:34;5.18;;;1.80;;
17369;SDS011;8802;52.402;4.920;2023-07-29T01:53:00;2.60;;;1.27;;
17369;SDS011;8802;52.402;4.920;2023-07-29T01:55:28;4.30;;;1.50;;
17369;SDS011;8802;52.402;4.920;2023-07-29T01:57:56;2.72;;;1.20;;
17369;SDS011;8802;52.402;4.920;2023-07-29T02:00:23;2.95;;;1.35;;
17369;SDS011;8802;52.402;4.920;2023-07-29T02:02:50;3.63;;;1.70;;
17369;SDS011;8802;52.402;4.920;2023-07-29T02:05:17;2.30;;;1.40;;
17369;SDS011;8802;52.402;4.920;2023-07-29T02:07:44;3.25;;;1.83;;
17369;SDS011;8802;52.402;4.920;2023-07-29T02:10:11;2.42;;;1.50;;
17369;SDS011;8802;52.402;4.920;2023-07-29T02:12:38;3.70;;;1.58;;
17369;SDS011;8802;52.402;4.920;2023-07-29T02:15:07;2.67;;;1.40;;
17369;SDS011;8802;52.402;4.920;2023-07-29T02:17:34;2.75;;;1.60;;
17369;SDS011;8802;52.402;4.920;2023-07-29T02:20:02;4.28;;;1.83;;
17369;SDS011;8802;52.402;4.920;2023-07-29T02:22:29;1.85;;;1.30;;
17369;SDS011;8802;52.402;4.920;2023-07-29T02:24:56;2.90;;;1.50;;
17369;SDS011;8802;52.402;4.920;2023-07-29T02:27:23;3.13;;;1.63;;
17369;SDS011;8802;52.402;4.920;2023-07-29T02:29:52;2.90;;;1.40;;
17369;SDS011;8802;52.402;4.920;2023-07-29T02:32:20;3.72;;;1.60;;
17369;SDS011;8802;52.402;4.920;2023-07-29T02:34:48;2.15;;;1.20;;
17369;SDS011;8802;52.402;4.920;2023-07-29T02:37:15;3.30;;;1.55;;
17369;SDS011;8802;52.402;4.920;2023-07-29T02:39:42;3.63;;;1.80;;
17369;SDS011;8802;52.402;4.920;2023-07-29T02:42:09;3.35;;;1.88;;
17369;SDS011;8802;52.402;4.920;2023-07-29T02:44:36;2.35;;;1.85;;
17369;SDS011;8802;52.402;4.920;2023-07-29T02:47:03;2.10;;;1.23;;
17369;SDS011;8802;52.402;4.920;2023-07-29T02:49:31;4.03;;;1.70;;
17369;SDS011;8802;52.402;4.920;2023-07-29T02:51:58;2.85;;;1.70;;
17369;SDS011;8802;52.402;4.920;2023-07-29T02:54:25;3.30;;;1.55;;
17369;SDS011;8802;52.402;4.920;2023-07-29T02:56:52;3.72;;;1.80;;
17369;SDS011;8802;52.402;4.920;2023-07-29T02:59:19;2.60;;;1.40;;
17369;SDS011;8802;52.402;4.920;2023-07-29T03:01:46;4.32;;;2.00;;
17369;SDS011;8802;52.402;4.920;2023-07-29T03:04:13;2.28;;;1.42;;
17369;SDS011;8802;52.402;4.920;2023-07-29T03:06:41;3.00;;;1.60;;
17369;SDS011;8802;52.402;4.920;2023-07-29T03:09:08;2.85;;;1.70;;
17369;SDS011;8802;52.402;4.920;2023-07-29T03:11:35;3.30;;;1.52;;
17369;SDS011;8802;52.402;4.920;2023-07-29T03:14:02;2.97;;;1.88;;
17369;SDS011;8802;52.402;4.920;2023-07-29T03:16:29;2.83;;;1.92;;
17369;SDS011;8802;52.402;4.920;2023-07-29T03:18:56;4.18;;;2.00;;
17369;SDS011;8802;52.402;4.920;2023-07-29T03:21:25;3.40;;;1.70;;
17369;SDS011;8802;52.402;4.920;2023-07-29T03:23:53;4.47;;;1.75;;
17369;SDS011;8802;52.402;4.920;2023-07-29T03:26:20;3.88;;;2.00;;
17369;SDS011;8802;52.402;4.920;2023-07-29T03:28:47;2.47;;;1.48;;
17369;SDS011;8802;52.402;4.920;2023-07-29T03:31:14;2.63;;;1.73;;
17369;SDS011;8802;52.402;4.920;2023-07-29T03:33:40;3.22;;;1.65;;
17369;SDS011;8802;52.402;4.920;2023-07-29T03:36:07;3.72;;;1.75;;
17369;SDS011;8802;52.402;4.920;2023-07-29T03:38:34;2.63;;;1.70;;
17369;SDS011;8802;52.402;4.920;2023-07-29T03:41:06;2.97;;;2.10;;
17369;SDS011;8802;52.402;4.920;2023-07-29T03:43:33;3.75;;;1.90;;
17369;SDS011;8802;52.402;4.920;2023-07-29T03:46:00;3.28;;;1.90;;
17369;SDS011;8802;52.402;4.920;2023-07-29T03:48:27;2.22;;;1.77;;
17369;SDS011;8802;52.402;4.920;2023-07-29T03:50:54;2.90;;;1.92;;
17369;SDS011;8802;52.402;4.920;2023-07-29T03:53:21;6.15;;;2.05;;
17369;SDS011;8802;52.402;4.920;2023-07-29T03:55:48;2.88;;;1.98;;
17369;SDS011;8802;52.402;4.920;2023-07-29T03:58:17;3.65;;;2.28;;
17369;SDS011;8802;52.402;4.920;2023-07-29T04:00:44;3.78;;;2.03;;
17369;SDS011;8802;52.402;4.920;2023-07-29T04:03:11;2.55;;;2.17;;
17369;SDS011;8802;52.402;4.920;2023-07-29T04:05:38;4.43;;;2.38;;
17369;SDS011;8802;52.402;4.920;2023-07-29T04:08:04;2.30;;;1.77;;
17369;SDS011;8802;52.402;4.920;2023-07-29T04:10:31;3.03;;;2.00;;
17369;SDS011;8802;52.402;4.920;2023-07-29T04:13:00;3.40;;;2.42;;
17369;SDS011;8802;52.402;4.920;2023-07-29T04:15:28;3.85;;;2.28;;
17369;SDS011;8802;52.402;4.920;2023-07-29T04:17:55;5.07;;;2.28;;
17369;SDS011;8802;52.402;4.920;2023-07-29T04:20:22;3.05;;;2.15;;
17369;SDS011;8802;52.402;4.920;2023-07-29T04:22:49;5.60;;;2.38;;
17369;SDS011;8802;52.402;4.920;2023-07-29T04:25:16;2.95;;;2.17;;
17369;SDS011;8802;52.402;4.920;2023-07-29T04:27:42;3.33;;;2.20;;
17369;SDS011;8802;52.402;4.920;2023-07-29T04:30:08;1.98;;;1.75;;
17369;SDS011;8802;52.402;4.920;2023-07-29T04:32:37;4.03;;;2.72;;
17369;SDS011;8802;52.402;4.920;2023-07-29T04:35:04;3.90;;;1.83;;
17369;SDS011;8802;52.402;4.920;2023-07-29T04:37:32;5.72;;;2.40;;
17369;SDS011;8802;52.402;4.920;2023-07-29T04:39:59;6.57;;;2.58;;
17369;SDS011;8802;52.402;4.920;2023-07-29T04:42:25;5.85;;;2.40;;
17369;SDS011;8802;52.402;4.920;2023-07-29T04:44:52;4.28;;;2.08;;
17369;SDS011;8802;52.402;4.920;2023-07-29T04:47:19;4.65;;;2.42;;
17369;SDS011;8802;52.402;4.920;2023-07-29T04:49:47;3.63;;;2.30;;
17369;SDS011;8802;52.402;4.920;2023-07-29T04:52:14;4.55;;;1.95;;
17369;SDS011;8802;52.402;4.920;2023-07-29T04:54:41;8.43;;;3.03;;
17369;SDS011;8802;52.402;4.920;2023-07-29T04:57:08;3.03;;;2.40;;
17369;SDS011;8802;52.402;4.920;2023-07-29T04:59:35;6.68;;;2.10;;
17369;SDS011;8802;52.402;4.920;2023-07-29T05:02:03;2.88;;;2.10;;
17369;SDS011;8802;52.402;4.920;2023-07-29T05:04:30;2.55;;;2.25;;
17369;SDS011;8802;52.402;4.920;2023-07-29T05:06:58;5.47;;;2.65;;
17369;SDS011;8802;52.402;4.920;2023-07-29T05:09:25;4.82;;;2.58;;
17369;SDS011;8802;52.402;4.920;2023-07-29T05:11:52;3.55;;;2.22;;
17369;SDS011;8802;52.402;4.920;2023-07-29T05:14:19;3.20;;;2.42;;
17369;SDS011;8802;52.402;4.920;2023-07-29T05:16:46;3.67;;;2.08;;
17369;SDS011;8802;52.402;4.920;2023-07-29T05:19:13;4.18;;;2.53;;
17369;SDS011;8802;52.402;4.920;2023-07-29T05:21:40;3.03;;;2.03;;
17369;SDS011;8802;52.402;4.920;2023-07-29T05:24:08;6.20;;;2.67;;
17369;SDS011;8802;52.402;4.920;2023-07-29T05:26:35;4.38;;;2.25;;
17369;SDS011;8802;52.402;4.920;2023-07-29T05:29:02;5.32;;;2.08;;
17369;SDS011;8802;52.402;4.920;2023-07-29T05:31:29;4.00;;;2.17;;
17369;SDS011;8802;52.402;4.920;2023-07-29T05:33:56;5.35;;;2.53;;
17369;SDS011;8802;52.402;4.920;2023-07-29T05:36:22;3.72;;;2.45;;
17369;SDS011;8802;52.402;4.920;2023-07-29T05:38:49;3.30;;;1.95;;
17369;SDS011;8802;52.402;4.920;2023-07-29T05:41:19;4.10;;;2.20;;
17369;SDS011;8802;52.402;4.920;2023-07-29T05:43:46;2.80;;;2.45;;
17369;SDS011;8802;52.402;4.920;2023-07-29T05:46:12;3.13;;;2.10;;
17369;SDS011;8802;52.402;4.920;2023-07-29T05:48:39;5.53;;;3.13;;
17369;SDS011;8802;52.402;4.920;2023-07-29T05:51:06;4.57;;;2.67;;
17369;SDS011;8802;52.402;4.920;2023-07-29T05:53:33;4.13;;;2.20;;
17369;SDS011;8802;52.402;4.920;2023-07-29T05:56:00;6.88;;;2.47;;
17369;SDS011;8802;52.402;4.920;2023-07-29T05:58:29;5.68;;;2.65;;
17369;SDS011;8802;52.402;4.920;2023-07-29T06:00:56;3.83;;;2.53;;
17369;SDS011;8802;52.402;4.920;2023-07-29T06:03:23;4.10;;;2.25;;
17369;SDS011;8802;52.402;4.920;2023-07-29T06:05:50;5.97;;;2.35;;
17369;SDS011;8802;52.402;4.920;2023-07-29T06:08:17;4.30;;;2.38;;
17369;SDS011;8802;52.402;4.920;2023-07-29T06:10:43;6.32;;;2.53;;
17369;SDS011;8802;52.402;4.920;2023-07-29T06:13:10;3.90;;;2.35;;
17369;SDS011;8802;52.402;4.920;2023-07-29T06:15:38;4.72;;;2.67;;
17369;SDS011;8802;52.402;4.920;2023-07-29T06:18:05;3.38;;;2.15;;
17369;SDS011;8802;52.402;4.920;2023-07-29T06:20:32;4.80;;;2.90;;
17369;SDS011;8802;52.402;4.920;2023-07-29T06:22:59;4.75;;;2.25;;
17369;SDS011;8802;52.402;4.920;2023-07-29T06:25:27;4.43;;;2.78;;
17369;SDS011;8802;52.402;4.920;2023-07-29T06:27:54;4.90;;;2.72;;
17369;SDS011;8802;52.402;4.920;2023-07-29T06:30:20;4.65;;;2.70;;
17369;SDS011;8802;52.402;4.920;2023-07-29T06:32:49;7.00;;;2.50;;
17369;SDS011;8802;52.402;4.920;2023-07-29T06:35:16;3.83;;;2.70;;
17369;SDS011;8802;52.402;4.920;2023-07-29T06:37:43;5.18;;;2.67;;
17369;SDS011;8802;52.402;4.920;2023-07-29T06:40:10;9.43;;;2.42;;
17369;SDS011;8802;52.402;4.920;2023-07-29T06:42:37;5.15;;;2.50;;
17369;SDS011;8802;52.402;4.920;2023-07-29T06:45:04;8.43;;;2.78;;
17369;SDS011;8802;52.402;4.920;2023-07-29T06:47:32;5.93;;;2.83;;
17369;SDS011;8802;52.402;4.920;2023-07-29T06:50:00;5.68;;;2.35;;
17369;SDS011;8802;52.402;4.920;2023-07-29T06:52:27;4.68;;;2.17;;
17369;SDS011;8802;52.402;4.920;2023-07-29T06:54:54;5.10;;;2.10;;
17369;SDS011;8802;52.402;4.920;2023-07-29T06:57:21;4.40;;;2.00;;
17369;SDS011;8802;52.402;4.920;2023-07-29T06:59:48;4.22;;;2.15;;
17369;SDS011;8802;52.402;4.920;2023-07-29T07:02:14;4.50;;;2.38;;
17369;SDS011;8802;52.402;4.920;2023-07-29T07:04:41;6.25;;;2.33;;
17369;SDS011;8802;52.402;4.920;2023-07-29T07:07:10;5.32;;;2.03;;
17369;SDS011;8802;52.402;4.920;2023-07-29T07:09:37;5.85;;;2.15;;
17369;SDS011;8802;52.402;4.920;2023-07-29T07:12:04;3.10;;;1.88;;
17369;SDS011;8802;52.402;4.920;2023-07-29T07:14:31;5.28;;;2.67;;
17369;SDS011;8802;52.402;4.920;2023-07-29T07:16:58;6.18;;;2.25;;
17369;SDS011;8802;52.402;4.920;2023-07-29T07:19:25;5.03;;;2.15;;
17369;SDS011;8802;52.402;4.920;2023-07-29T07:21:52;6.80;;;2.20;;
17369;SDS011;8802;52.402;4.920;2023-07-29T07:24:20;4.43;;;1.95;;
17369;SDS011;8802;52.402;4.920;2023-07-29T07:26:47;2.42;;;1.40;;
17369;SDS011;8802;52.402;4.920;2023-07-29T07:29:14;3.83;;;1.95;;
17369;SDS011;8802;52.402;4.920;2023-07-29T07:31:41;4.18;;;1.83;;
17369;SDS011;8802;52.402;4.920;2023-07-29T07:34:17;3.35;;;1.48;;
17369;SDS011;8802;52.402;4.920;2023-07-29T07:36:44;5.05;;;1.95;;
17369;SDS011;8802;52.402;4.920;2023-07-29T07:39:11;4.45;;;1.65;;
17369;SDS011;8802;52.402;4.920;2023-07-29T07:41:39;4.65;;;1.85;;
17369;SDS011;8802;52.402;4.920;2023-07-29T07:44:06;6.40;;;1.75;;
17369;SDS011;8802;52.402;4.920;2023-07-29T07:46:33;3.38;;;1.50;;
17369;SDS011;8802;52.402;4.920;2023-07-29T07:49:00;3.45;;;1.45;;
17369;SDS011;8802;52.402;4.920;2023-07-29T07:51:27;3.92;;;1.42;;
17369;SDS011;8802;52.402;4.920;2023-07-29T07:53:54;5.40;;;1.48;;
17369;SDS011;8802;52.402;4.920;2023-07-29T07:56:21;2.83;;;1.40;;
17369;SDS011;8802;52.402;4.920;2023-07-29T07:58:49;4.72;;;1.50;;
17369;SDS011;8802;52.402;4.920;2023-07-29T08:01:16;4.85;;;1.80;;
17369;SDS011;8802;52.402;4.920;2023-07-29T08:03:42;3.10;;;1.70;;
17369;SDS011;8802;52.402;4.920;2023-07-29T08:06:09;3.08;;;1.38;;
17369;SDS011;8802;52.402;4.920;2023-07-29T08:08:36;2.60;;;1.10;;
17369;SDS011;8802;52.402;4.920;2023-07-29T08:11:03;5.97;;;1.90;;
17369;SDS011;8802;52.402;4.920;2023-07-29T08:13:30;4.05;;;1.73;;
17369;SDS011;8802;52.402;4.920;2023-07-29T08:15:58;4.38;;;1.48;;
17369;SDS011;8802;52.402;4.920;2023-07-29T08:18:25;4.22;;;1.70;;
17369;SDS011;8802;52.402;4.920;2023-07-29T08:20:52;2.97;;;1.30;;
17369;SDS011;8802;52.402;4.920;2023-07-29T08:23:20;6.75;;;1.70;;
17369;SDS011;8802;52.402;4.920;2023-07-29T08:25:50;5.97;;;1.60;;
17369;SDS011;8802;52.402;4.920;2023-07-29T08:28:19;6.80;;;1.70;;
17369;SDS011;8802;52.402;4.920;2023-07-29T08:30:46;4.97;;;1.80;;
17369;SDS011;8802;52.402;4.920;2023-07-29T08:33:14;3.15;;;1.52;;
17369;SDS011;8802;52.402;4.920;2023-07-29T08:35:41;3.67;;;1.65;;
17369;SDS011;8802;52.402;4.920;2023-07-29T08:38:08;4.97;;;1.77;;
17369;SDS011;8802;52.402;4.920;2023-07-29T08:40:35;2.28;;;1.30;;
17369;SDS011;8802;52.402;4.920;2023-07-29T08:43:08;5.18;;;1.50;;
17369;SDS011;8802;52.402;4.920;2023-07-29T08:45:37;3.97;;;1.85;;
17369;SDS011;8802;52.402;4.920;2023-07-29T08:48:07;4.88;;;1.85;;
17369;SDS011;8802;52.402;4.920;2023-07-29T08:50:37;5.78;;;1.73;;
17369;SDS011;8802;52.402;4.920;2023-07-29T08:53:04;5.97;;;1.70;;
17369;SDS011;8802;52.402;4.920;2023-07-29T08:55:31;2.42;;;1.65;;
17369;SDS011;8802;52.402;4.920;2023-07-29T08:57:59;5.50;;;2.08;;
17369;SDS011;8802;52.402;4.920;2023-07-29T09:00:26;5.60;;;2.10;;
17369;SDS011;8802;52.402;4.920;2023-07-29T09:02:53;6.10;;;1.90;;
17369;SDS011;8802;52.402;4.920;2023-07-29T09:05:22;4.32;;;1.98;;
17369;SDS011;8802;52.402;4.920;2023-07-29T09:07:51;5.60;;;2.00;;
17369;SDS011;8802;52.402;4.920;2023-07-29T09:10:21;4.03;;;1.90;;
17369;SDS011;8802;52.402;4.920;2023-07-29T09:12:49;5.60;;;2.50;;
17369;SDS011;8802;52.402;4.920;2023-07-29T09:15:25;5.95;;;2.25;;
17369;SDS011;8802;52.402;4.920;2023-07-29T09:17:55;3.63;;;1.83;;
17369;SDS011;8802;52.402;4.920;2023-07-29T09:20:23;5.55;;;2.00;;
17369;SDS011;8802;52.402;4.920;2023-07-29T09:22:53;5.32;;;1.92;;
17369;SDS011;8802;52.402;4.920;2023-07-29T09:25:24;6.13;;;2.90;;
17369;SDS011;8802;52.402;4.920;2023-07-29T09:27:51;4.82;;;2.20;;
17369;SDS011;8802;52.402;4.920;2023-07-29T09:30:18;4.57;;;1.98;;
17369;SDS011;8802;52.402;4.920;2023-07-29T09:32:45;6.47;;;1.90;;
17369;SDS011;8802;52.402;4.920;2023-07-29T09:35:13;4.05;;;2.10;;
17369;SDS011;8802;52.402;4.920;2023-07-29T09:37:40;3.20;;;1.73;;
17369;SDS011;8802;52.402;4.920;2023-07-29T09:40:12;4.75;;;2.30;;
17369;SDS011;8802;52.402;4.920;2023-07-29T09:42:47;5.57;;;2.35;;
17369;SDS011;8802;52.402;4.920;2023-07-29T09:45:25;4.18;;;2.10;;
17369;SDS011;8802;52.402;4.920;2023-07-29T09:47:53;4.20;;;2.28;;
17369;SDS011;8802;52.402;4.920;2023-07-29T09:50:22;3.90;;;1.75;;
17369;SDS011;8802;52.402;4.920;2023-07-29T09:52:50;5.65;;;2.05;;
17369;SDS011;8802;52.402;4.920;2023-07-29T09:55:20;3.67;;;1.63;;
17369;SDS011;8802;52.402;4.920;2023-07-29T09:57:48;4.30;;;1.90;;
17369;SDS011;8802;52.402;4.920;2023-07-29T10:00:20;4.47;;;1.90;;
17369;SDS011;8802;52.402;4.920;2023-07-29T10:02:47;6.97;;;1.80;;
17369;SDS011;8802;52.402;4.920;2023-07-29T10:05:15;6.70;;;2.25;;
17369;SDS011;8802;52.402;4.920;2023-07-29T10:07:42;4.82;;;2.10;;
17369;SDS011;8802;52.402;4.920;2023-07-29T10:10:09;5.80;;;2.10;;
17369;SDS011;8802;52.402;4.920;2023-07-29T10:12:41;3.53;;;1.83;;
17369;SDS011;8802;52.402;4.920;2023-07-29T10:15:09;3.13;;;1.90;;
17369;SDS011;8802;52.402;4.920;2023-07-29T10:17:37;4.68;;;2.22;;
17369;SDS011;8802;52.402;4.920;2023-07-29T10:20:07;6.35;;;2.10;;
17369;SDS011;8802;52.402;4.920;2023-07-29T10:22:37;4.25;;;2.08;;
17369;SDS011;8802;52.402;4.920;2023-07-29T10:25:07;4.47;;;1.80;;
17369;SDS011;8802;52.402;4.920;2023-07-29T10:27:39;3.92;;;1.90;;
17369;SDS011;8802;52.402;4.920;2023-07-29T10:30:13;4.50;;;1.70;;
17369;SDS011;8802;52.402;4.920;2023-07-29T10:32:41;2.08;;;1.83;;
17369;SDS011;8802;52.402;4.920;2023-07-29T10:35:10;3.35;;;1.85;;
17369;SDS011;8802;52.402;4.920;2023-07-29T10:37:37;3.58;;;1.70;;
17369;SDS011;8802;52.402;4.920;2023-07-29T10:40:06;3.38;;;1.80;;
17369;SDS011;8802;52.402;4.920;2023-07-29T10:42:34;4.78;;;2.00;;
17369;SDS011;8802;52.402;4.920;2023-07-29T10:45:20;4.78;;;1.52;;
17369;SDS011;8802;52.402;4.920;2023-07-29T10:47:48;2.90;;;1.60;;
17369;SDS011;8802;52.402;4.920;2023-07-29T10:50:20;4.50;;;2.03;;
17369;SDS011;8802;52.402;4.920;2023-07-29T10:52:49;5.50;;;2.00;;
17369;SDS011;8802;52.402;4.920;2023-07-29T10:55:27;3.92;;;1.92;;
17369;SDS011;8802;52.402;4.920;2023-07-29T10:58:06;6.38;;;2.00;;
17369;SDS011;8802;52.402;4.920;2023-07-29T11:00:43;3.55;;;1.80;;
17369;SDS011;8802;52.402;4.920;2023-07-29T11:03:11;3.38;;;1.60;;
17369;SDS011;8802;52.402;4.920;2023-07-29T11:05:45;2.97;;;1.70;;
17369;SDS011;8802;52.402;4.920;2023-07-29T11:08:17;2.97;;;1.58;;
17369;SDS011;8802;52.402;4.920;2023-07-29T11:10:57;2.38;;;1.50;;
17369;SDS011;8802;52.402;4.920;2023-07-29T11:13:26;3.00;;;1.67;;
17369;SDS011;8802;52.402;4.920;2023-07-29T11:15:56;2.97;;;1.45;;
17369;SDS011;8802;52.402;4.920;2023-07-29T11:18:26;4.15;;;2.00;;
17369;SDS011;8802;52.402;4.920;2023-07-29T11:20:54;4.15;;;1.80;;
17369;SDS011;8802;52.402;4.920;2023-07-29T11:23:26;4.57;;;1.65;;
17369;SDS011;8802;52.402;4.920;2023-07-29T11:25:55;2.55;;;1.63;;
17369;SDS011;8802;52.402;4.920;2023-07-29T11:28:22;5.00;;;1.88;;
17369;SDS011;8802;52.402;4.920;2023-07-29T11:30:49;3.53;;;1.48;;
17369;SDS011;8802;52.402;4.920;2023-07-29T11:33:18;3.28;;;2.00;;
17369;SDS011;8802;52.402;4.920;2023-07-29T11:35:46;5.65;;;1.83;;
17369;SDS011;8802;52.402;4.920;2023-07-29T11:38:16;4.72;;;1.92;;
17369;SDS011;8802;52.402;4.920;2023-07-29T11:40:53;4.18;;;2.00;;
17369;SDS011;8802;52.402;4.920;2023-07-29T11:43:21;4.72;;;1.95;;
17369;SDS011;8802;52.402;4.920;2023-07-29T11:45:48;3.97;;;1.67;;
17369;SDS011;8802;52.402;4.920;2023-07-29T11:48:15;3.10;;;1.55;;
17369;SDS011;8802;52.402;4.920;2023-07-29T11:50:43;4.78;;;1.33;;
17369;SDS011;8802;52.402;4.920;2023-07-29T11:53:12;3.72;;;1.40;;
17369;SDS011;8802;52.402;4.920;2023-07-29T11:55:39;4.75;;;1.38;;
17369;SDS011;8802;52.402;4.920;2023-07-29T11:58:06;3.60;;;1.73;;
17369;SDS011;8802;52.402;4.920;2023-07-29T12:00:33;4.25;;;1.30;;
17369;SDS011;8802;52.402;4.920;2023-07-29T12:03:00;2.78;;;1.30;;
17369;SDS011;8802;52.402;4.920;2023-07-29T12:05:28;5.00;;;1.23;;
17369;SDS011;8802;52.402;4.920;2023-07-29T12:07:57;2.25;;;1.27;;
17369;SDS011;8802;52.402;4.920;2023-07-29T12:10:24;4.43;;;1.10;;
17369;SDS011;8802;52.402;4.920;2023-07-29T12:12:51;2.92;;;1.17;;
17369;SDS011;8802;52.402;4.920;2023-07-29T12:15:24;2.55;;;1.20;;
17369;SDS011;8802;52.402;4.920;2023-07-29T12:17:53;3.10;;;1.08;;
17369;SDS011;8802;52.402;4.920;2023-07-29T12:20:23;5.05;;;1.20;;
17369;SDS011;8802;52.402;4.920;2023-07-29T12:22:51;4.40;;;1.30;;
17369;SDS011;8802;52.402;4.920;2023-07-29T12:25:21;2.70;;;0.88;;
17369;SDS011;8802;52.402;4.920;2023-07-29T12:27:49;2.40;;;1.10;;
17369;SDS011;8802;52.402;4.920;2023-07-29T12:30:15;2.03;;;0.98;;
17369;SDS011;8802;52.402;4.920;2023-07-29T12:32:46;2.85;;;0.80;;
17369;SDS011;8802;52.402;4.920;2023-07-29T12:35:13;2.20;;;0.80;;
17369;SDS011;8802;52.402;4.920;2023-07-29T12:37:40;1.83;;;0.70;;
17369;SDS011;8802;52.402;4.920;2023-07-29T12:40:09;3.15;;;0.80;;
17369;SDS011;8802;52.402;4.920;2023-07-29T12:42:49;1.20;;;0.73;;
17369;SDS011;8802;52.402;4.920;2023-07-29T12:45:16;2.55;;;0.60;;
17369;SDS011;8802;52.402;4.920;2023-07-29T12:47:44;1.50;;;0.45;;
17369;SDS011;8802;52.402;4.920;2023-07-29T12:50:11;1.98;;;0.65;;
17369;SDS011;8802;52.402;4.920;2023-07-29T12:52:38;1.33;;;0.55;;
17369;SDS011;8802;52.402;4.920;2023-07-29T12:55:05;1.58;;;0.52;;
17369;SDS011;8802;52.402;4.920;2023-07-29T12:57:39;2.47;;;0.77;;
17369;SDS011;8802;52.402;4.920;2023-07-29T13:00:07;1.17;;;0.50;;
17369;SDS011;8802;52.402;4.920;2023-07-29T13:02:35;0.80;;;0.43;;
17369;SDS011;8802;52.402;4.920;2023-07-29T13:05:02;1.60;;;0.52;;
17369;SDS011;8802;52.402;4.920;2023-07-29T13:07:30;1.02;;;0.57;;
17369;SDS011;8802;52.402;4.920;2023-07-29T13:09:57;1.10;;;0.60;;
17369;SDS011;8802;52.402;4.920;2023-07-29T13:12:24;0.93;;;0.40;;
17369;SDS011;8802;52.402;4.920;2023-07-29T13:14:52;1.35;;;0.50;;
17369;SDS011;8802;52.402;4.920;2023-07-29T13:17:19;3.63;;;0.60;;
17369;SDS011;8802;52.402;4.920;2023-07-29T13:19:47;3.15;;;0.47;;
17369;SDS011;8802;52.402;4.920;2023-07-29T13:22:14;1.15;;;0.50;;
17369;SDS011;8802;52.402;4.920;2023-07-29T13:24:41;3.38;;;0.43;;
17369;SDS011;8802;52.402;4.920;2023-07-29T13:27:08;1.70;;;0.50;;
17369;SDS011;8802;52.402;4.920;2023-07-29T13:29:35;1.17;;;0.68;;
17369;SDS011;8802;52.402;4.920;2023-07-29T13:32:03;1.55;;;0.50;;
17369;SDS011;8802;52.402;4.920;2023-07-29T13:34:31;1.80;;;0.65;;
17369;SDS011;8802;52.402;4.920;2023-07-29T13:36:59;1.30;;;0.50;;
17369;SDS011;8802;52.402;4.920;2023-07-29T13:39:26;1.55;;;0.52;;
17369;SDS011;8802;52.402;4.920;2023-07-29T13:41:53;1.45;;;0.75;;
17369;SDS011;8802;52.402;4.920;2023-07-29T13:44:20;3.72;;;0.57;;
17369;SDS011;8802;52.402;4.920;2023-07-29T13:46:47;2.03;;;0.60;;
17369;SDS011;8802;52.402;4.920;2023-07-29T13:49:16;2.17;;;0.73;;
17369;SDS011;8802;52.402;4.920;2023-07-29T13:51:43;3.10;;;0.55;;
17369;SDS011;8802;52.402;4.920;2023-07-29T13:54:11;3.28;;;0.77;;
17369;SDS011;8802;52.402;4.920;2023-07-29T13:56:38;2.55;;;0.70;;
17369;SDS011;8802;52.402;4.920;2023-07-29T13:59:04;1.45;;;0.60;;
17369;SDS011;8802;52.402;4.920;2023-07-29T14:01:31;2.75;;;0.93;;
17369;SDS011;8802;52.402;4.920;2023-07-29T14:03:58;1.90;;;0.80;;
17369;SDS011;8802;52.402;4.920;2023-07-29T14:06:27;1.75;;;0.80;;
17369;SDS011;8802;52.402;4.920;2023-07-29T14:08:53;1.83;;;0.80;;
17369;SDS011;8802;52.402;4.920;2023-07-29T14:11:20;1.17;;;0.50;;
17369;SDS011;8802;52.402;4.920;2023-07-29T14:13:47;1.88;;;0.77;;
17369;SDS011;8802;52.402;4.920;2023-07-29T14:16:14;2.33;;;1.20;;
17369;SDS011;8802;52.402;4.920;2023-07-29T14:18:41;2.10;;;0.90;;
17369;SDS011;8802;52.402;4.920;2023-07-29T14:21:08;1.75;;;1.00;;
17369;SDS011;8802;52.402;4.920;2023-07-29T14:23:36;1.27;;;0.70;;
17369;SDS011;8802;52.402;4.920;2023-07-29T14:26:03;2.88;;;1.10;;
17369;SDS011;8802;52.402;4.920;2023-07-29T14:28:31;2.55;;;0.70;;
17369;SDS011;8802;52.402;4.920;2023-07-29T14:30:58;3.00;;;1.00;;
17369;SDS011;8802;52.402;4.920;2023-07-29T14:33:24;1.95;;;1.00;;
17369;SDS011;8802;52.402;4.920;2023-07-29T14:35:51;1.63;;;0.90;;
17369;SDS011;8802;52.402;4.920;2023-07-29T14:38:18;2.13;;;0.90;;
17369;SDS011;8802;52.402;4.920;2023-07-29T14:40:47;2.83;;;1.13;;
17369;SDS011;8802;52.402;4.920;2023-07-29T14:43:16;2.42;;;0.88;;
17369;SDS011;8802;52.402;4.920;2023-07-29T14:45:42;3.03;;;1.10;;
17369;SDS011;8802;52.402;4.920;2023-07-29T14:48:09;1.90;;;1.13;;
17369;SDS011;8802;52.402;4.920;2023-07-29T14:50:36;2.65;;;1.00;;
17369;SDS011;8802;52.402;4.920;2023-07-29T14:53:03;3.20;;;1.10;;
17369;SDS011;8802;52.402;4.920;2023-07-29T14:55:31;2.03;;;1.30;;
17369;SDS011;8802;52.402;4.920;2023-07-29T14:57:59;2.10;;;1.23;;
17369;SDS011;8802;52.402;4.920;2023-07-29T15:00:27;2.40;;;1.42;;
17369;SDS011;8802;52.402;4.920;2023-07-29T15:02:54;3.47;;;1.50;;
17369;SDS011;8802;52.402;4.920;2023-07-29T15:05:21;2.15;;;1.70;;